Terminal Aerodrome Forecast
Issued by NWS Billings, MT

Home | Current Version | Previous Version | Text Only | Print | Product List | Glossary On
Versions: 1 2 3 4 5 6 7 8 9 10 11 12
000
FTUS45 KBYZ 290523
TAFSHR
TAF
KSHR 290523Z 2906/3006 00000KT P6SM BKN120
     FM290900 34006KT P6SM FEW120
     FM291800 11008KT P6SM FEW090=

USA.gov is the U.S. government's official web portal to all federal, state and local government web resources and services.